sensor_id;sensor_type;location;lat;lon;timestamp;P1;durP1;ratioP1;P2;durP2;ratioP2
73104;SDS011;61296;50.526;30.792;2024-02-16T00:42:39;26.35;;;7.80;;
73104;SDS011;61296;50.526;30.792;2024-02-16T00:58:56;158.23;;;13.07;;
73104;SDS011;61296;50.526;30.792;2024-02-16T01:15:07;34.13;;;8.45;;
73104;SDS011;61296;50.526;30.792;2024-02-16T01:47:34;48.63;;;13.07;;
73104;SDS011;61296;50.526;30.792;2024-02-16T02:19:43;216.63;;;15.73;;
73104;SDS011;61296;50.526;30.792;2024-02-16T02:35:50;51.80;;;14.10;;
73104;SDS011;61296;50.526;30.792;2024-02-16T03:08:06;46.35;;;12.82;;
73104;SDS011;61296;50.526;30.792;2024-02-16T03:24:24;42.10;;;12.27;;
73104;SDS011;61296;50.526;30.792;2024-02-16T03:40:32;35.07;;;10.77;;
73104;SDS011;61296;50.526;30.792;2024-02-16T03:56:23;42.75;;;12.40;;
73104;SDS011;61296;50.526;30.792;2024-02-16T04:12:25;46.60;;;13.02;;
73104;SDS011;61296;50.526;30.792;2024-02-16T04:28:11;71.90;;;20.45;;
73104;SDS011;61296;50.526;30.792;2024-02-16T04:44:06;65.32;;;15.93;;
73104;SDS011;61296;50.526;30.792;2024-02-16T04:59:51;55.80;;;14.40;;
73104;SDS011;61296;50.526;30.792;2024-02-16T05:15:39;207.32;;;27.00;;
73104;SDS011;61296;50.526;30.792;2024-02-16T05:31:33;73.82;;;16.10;;
73104;SDS011;61296;50.526;30.792;2024-02-16T05:47:10;255.02;;;20.08;;
73104;SDS011;61296;50.526;30.792;2024-02-16T06:02:44;137.90;;;16.70;;
73104;SDS011;61296;50.526;30.792;2024-02-16T06:18:28;54.60;;;12.68;;
73104;SDS011;61296;50.526;30.792;2024-02-16T06:34:04;85.57;;;17.03;;
73104;SDS011;61296;50.526;30.792;2024-02-16T06:49:37;118.78;;;18.02;;
73104;SDS011;61296;50.526;30.792;2024-02-16T07:05:13;124.25;;;17.55;;
73104;SDS011;61296;50.526;30.792;2024-02-16T07:20:54;103.45;;;21.00;;
73104;SDS011;61296;50.526;30.792;2024-02-16T07:36:31;89.22;;;20.45;;
73104;SDS011;61296;50.526;30.792;2024-02-16T07:52:08;127.45;;;24.08;;
73104;SDS011;61296;50.526;30.792;2024-02-16T08:07:51;99.30;;;24.45;;
73104;SDS011;61296;50.526;30.792;2024-02-16T08:23:24;68.97;;;21.25;;
73104;SDS011;61296;50.526;30.792;2024-02-16T08:39:13;60.35;;;19.08;;
73104;SDS011;61296;50.526;30.792;2024-02-16T08:54:57;58.30;;;20.23;;
73104;SDS011;61296;50.526;30.792;2024-02-16T09:10:30;65.30;;;20.30;;
73104;SDS011;61296;50.526;30.792;2024-02-16T09:41:42;79.55;;;20.92;;
73104;SDS011;61296;50.526;30.792;2024-02-16T09:57:20;60.93;;;19.10;;
73104;SDS011;61296;50.526;30.792;2024-02-16T10:13:03;50.80;;;19.00;;
73104;SDS011;61296;50.526;30.792;2024-02-16T10:28:40;59.63;;;20.80;;
73104;SDS011;61296;50.526;30.792;2024-02-16T10:44:20;56.57;;;18.67;;
73104;SDS011;61296;50.526;30.792;2024-02-16T11:00:06;50.45;;;21.48;;
73104;SDS011;61296;50.526;30.792;2024-02-16T11:15:42;35.47;;;15.18;;
73104;SDS011;61296;50.526;30.792;2024-02-16T11:31:16;33.53;;;15.63;;
73104;SDS011;61296;50.526;30.792;2024-02-16T11:46:53;29.60;;;13.98;;
73104;SDS011;61296;50.526;30.792;2024-02-16T12:02:26;30.58;;;14.65;;
73104;SDS011;61296;50.526;30.792;2024-02-16T12:18:02;35.05;;;15.75;;
73104;SDS011;61296;50.526;30.792;2024-02-16T12:33:37;27.40;;;13.30;;
73104;SDS011;61296;50.526;30.792;2024-02-16T12:49:13;24.05;;;13.18;;
73104;SDS011;61296;50.526;30.792;2024-02-16T13:04:48;24.20;;;11.60;;
73104;SDS011;61296;50.526;30.792;2024-02-16T13:20:37;33.22;;;14.32;;
73104;SDS011;61296;50.526;30.792;2024-02-16T13:36:16;28.65;;;13.93;;
73104;SDS011;61296;50.526;30.792;2024-02-16T13:52:05;24.85;;;11.43;;
73104;SDS011;61296;50.526;30.792;2024-02-16T14:07:41;20.33;;;10.52;;
73104;SDS011;61296;50.526;30.792;2024-02-16T14:23:14;23.15;;;10.80;;
73104;SDS011;61296;50.526;30.792;2024-02-16T14:38:50;25.55;;;12.35;;
73104;SDS011;61296;50.526;30.792;2024-02-16T14:54:23;24.08;;;11.48;;
73104;SDS011;61296;50.526;30.792;2024-02-16T15:09:58;24.17;;;12.02;;
73104;SDS011;61296;50.526;30.792;2024-02-16T15:25:32;26.35;;;12.45;;
73104;SDS011;61296;50.526;30.792;2024-02-16T15:41:05;21.30;;;11.05;;
73104;SDS011;61296;50.526;30.792;2024-02-16T15:56:39;24.30;;;11.55;;
73104;SDS011;61296;50.526;30.792;2024-02-16T16:12:13;22.42;;;12.05;;
73104;SDS011;61296;50.526;30.792;2024-02-16T16:27:47;26.48;;;12.85;;
73104;SDS011;61296;50.526;30.792;2024-02-16T16:43:20;26.38;;;13.05;;
73104;SDS011;61296;50.526;30.792;2024-02-16T16:58:55;28.67;;;13.13;;
73104;SDS011;61296;50.526;30.792;2024-02-16T17:14:33;28.33;;;13.35;;
73104;SDS011;61296;50.526;30.792;2024-02-16T17:30:14;23.23;;;12.27;;
73104;SDS011;61296;50.526;30.792;2024-02-16T17:45:48;24.60;;;10.88;;
73104;SDS011;61296;50.526;30.792;2024-02-16T18:01:30;24.27;;;10.73;;
73104;SDS011;61296;50.526;30.792;2024-02-16T18:17:05;27.60;;;12.48;;
73104;SDS011;61296;50.526;30.792;2024-02-16T18:32:50;24.90;;;11.53;;
73104;SDS011;61296;50.526;30.792;2024-02-16T18:48:25;22.88;;;10.02;;
73104;SDS011;61296;50.526;30.792;2024-02-16T19:04:05;24.42;;;11.55;;
73104;SDS011;61296;50.526;30.792;2024-02-16T19:19:39;23.05;;;10.55;;
73104;SDS011;61296;50.526;30.792;2024-02-16T19:35:12;24.23;;;11.10;;
73104;SDS011;61296;50.526;30.792;2024-02-16T19:50:47;22.33;;;10.82;;
73104;SDS011;61296;50.526;30.792;2024-02-16T20:06:21;35.92;;;14.32;;
73104;SDS011;61296;50.526;30.792;2024-02-16T20:21:56;29.98;;;13.00;;
73104;SDS011;61296;50.526;30.792;2024-02-16T20:37:30;30.33;;;13.02;;
73104;SDS011;61296;50.526;30.792;2024-02-16T20:53:05;32.00;;;13.50;;
73104;SDS011;61296;50.526;30.792;2024-02-16T21:08:39;30.73;;;14.10;;
73104;SDS011;61296;50.526;30.792;2024-02-16T21:24:15;31.27;;;13.43;;
73104;SDS011;61296;50.526;30.792;2024-02-16T21:39:56;35.25;;;13.50;;
73104;SDS011;61296;50.526;30.792;2024-02-16T21:55:32;37.97;;;14.53;;
73104;SDS011;61296;50.526;30.792;2024-02-16T22:11:05;33.45;;;13.73;;
73104;SDS011;61296;50.526;30.792;2024-02-16T22:26:39;28.77;;;12.05;;
73104;SDS011;61296;50.526;30.792;2024-02-16T22:42:13;33.80;;;13.13;;
73104;SDS011;61296;50.526;30.792;2024-02-16T22:57:46;37.53;;;14.55;;
73104;SDS011;61296;50.526;30.792;2024-02-16T23:13:19;37.08;;;14.57;;
73104;SDS011;61296;50.526;30.792;2024-02-16T23:28:53;36.60;;;14.02;;
73104;SDS011;61296;50.526;30.792;2024-02-16T23:44:27;30.38;;;12.95;;
